sensor_id;sensor_type;location;lat;lon;timestamp;P1;durP1;ratioP1;P2;durP2;ratioP2
83554;SDS011;73511;50.996;7.030;2024-02-28T00:01:20;29.10;;;10.45;;
83554;SDS011;73511;50.996;7.030;2024-02-28T00:03:49;27.00;;;10.63;;
83554;SDS011;73511;50.996;7.030;2024-02-28T00:06:16;26.42;;;10.85;;
83554;SDS011;73511;50.996;7.030;2024-02-28T00:08:43;27.30;;;10.90;;
83554;SDS011;73511;50.996;7.030;2024-02-28T00:11:21;25.52;;;10.50;;
83554;SDS011;73511;50.996;7.030;2024-02-28T00:13:47;28.13;;;11.93;;
83554;SDS011;73511;50.996;7.030;2024-02-28T00:16:14;27.02;;;11.50;;
83554;SDS011;73511;50.996;7.030;2024-02-28T00:18:40;24.10;;;10.68;;
83554;SDS011;73511;50.996;7.030;2024-02-28T00:21:07;24.88;;;11.55;;
83554;SDS011;73511;50.996;7.030;2024-02-28T00:23:34;27.95;;;11.02;;
83554;SDS011;73511;50.996;7.030;2024-02-28T00:26:00;25.00;;;10.10;;
83554;SDS011;73511;50.996;7.030;2024-02-28T00:28:27;27.52;;;9.95;;
83554;SDS011;73511;50.996;7.030;2024-02-28T00:30:54;24.35;;;10.93;;
83554;SDS011;73511;50.996;7.030;2024-02-28T00:33:21;28.17;;;11.02;;
83554;SDS011;73511;50.996;7.030;2024-02-28T00:35:47;24.85;;;9.77;;
83554;SDS011;73511;50.996;7.030;2024-02-28T00:38:14;22.45;;;9.82;;
83554;SDS011;73511;50.996;7.030;2024-02-28T00:40:40;26.55;;;10.88;;
83554;SDS011;73511;50.996;7.030;2024-02-28T00:43:07;29.63;;;9.65;;
83554;SDS011;73511;50.996;7.030;2024-02-28T00:45:34;26.35;;;12.07;;
83554;SDS011;73511;50.996;7.030;2024-02-28T00:48:00;22.88;;;9.52;;
83554;SDS011;73511;50.996;7.030;2024-02-28T00:50:27;26.20;;;8.85;;
83554;SDS011;73511;50.996;7.030;2024-02-28T00:52:54;15.75;;;7.55;;
83554;SDS011;73511;50.996;7.030;2024-02-28T00:55:20;22.92;;;8.68;;
83554;SDS011;73511;50.996;7.030;2024-02-28T00:57:47;27.02;;;9.10;;
83554;SDS011;73511;50.996;7.030;2024-02-28T01:00:13;23.25;;;9.25;;
83554;SDS011;73511;50.996;7.030;2024-02-28T01:02:40;22.30;;;9.85;;
83554;SDS011;73511;50.996;7.030;2024-02-28T01:05:09;23.77;;;10.68;;
83554;SDS011;73511;50.996;7.030;2024-02-28T01:07:36;25.85;;;9.90;;
83554;SDS011;73511;50.996;7.030;2024-02-28T01:10:03;23.67;;;10.10;;
83554;SDS011;73511;50.996;7.030;2024-02-28T01:12:30;25.05;;;10.27;;
83554;SDS011;73511;50.996;7.030;2024-02-28T01:14:57;19.85;;;9.10;;
83554;SDS011;73511;50.996;7.030;2024-02-28T01:17:23;21.40;;;9.27;;
83554;SDS011;73511;50.996;7.030;2024-02-28T01:19:53;27.67;;;10.10;;
83554;SDS011;73511;50.996;7.030;2024-02-28T01:22:19;27.23;;;11.35;;
83554;SDS011;73511;50.996;7.030;2024-02-28T01:24:46;12.38;;;6.25;;
83554;SDS011;73511;50.996;7.030;2024-02-28T01:27:13;19.20;;;8.90;;
83554;SDS011;73511;50.996;7.030;2024-02-28T01:29:39;18.65;;;8.02;;
83554;SDS011;73511;50.996;7.030;2024-02-28T01:32:06;20.23;;;8.27;;
83554;SDS011;73511;50.996;7.030;2024-02-28T01:34:33;29.25;;;10.05;;
83554;SDS011;73511;50.996;7.030;2024-02-28T01:36:59;18.60;;;8.13;;
83554;SDS011;73511;50.996;7.030;2024-02-28T01:39:26;25.30;;;10.75;;
83554;SDS011;73511;50.996;7.030;2024-02-28T01:41:53;23.98;;;9.43;;
83554;SDS011;73511;50.996;7.030;2024-02-28T01:44:20;31.10;;;10.90;;
83554;SDS011;73511;50.996;7.030;2024-02-28T01:46:47;22.38;;;9.68;;
83554;SDS011;73511;50.996;7.030;2024-02-28T01:49:14;21.27;;;8.85;;
83554;SDS011;73511;50.996;7.030;2024-02-28T01:51:41;28.38;;;11.70;;
83554;SDS011;73511;50.996;7.030;2024-02-28T01:54:08;29.63;;;11.05;;
83554;SDS011;73511;50.996;7.030;2024-02-28T01:56:34;32.55;;;12.38;;
83554;SDS011;73511;50.996;7.030;2024-02-28T01:59:01;29.35;;;11.93;;
83554;SDS011;73511;50.996;7.030;2024-02-28T02:01:28;32.03;;;11.40;;
83554;SDS011;73511;50.996;7.030;2024-02-28T02:03:55;27.90;;;10.68;;
83554;SDS011;73511;50.996;7.030;2024-02-28T02:06:21;30.58;;;11.80;;
83554;SDS011;73511;50.996;7.030;2024-02-28T02:08:48;36.42;;;12.13;;
83554;SDS011;73511;50.996;7.030;2024-02-28T02:11:16;29.25;;;11.45;;
83554;SDS011;73511;50.996;7.030;2024-02-28T02:13:51;28.10;;;11.52;;
83554;SDS011;73511;50.996;7.030;2024-02-28T02:16:19;30.95;;;10.50;;
83554;SDS011;73511;50.996;7.030;2024-02-28T02:18:48;33.60;;;12.20;;
83554;SDS011;73511;50.996;7.030;2024-02-28T02:21:15;30.27;;;11.98;;
83554;SDS011;73511;50.996;7.030;2024-02-28T02:23:44;29.45;;;11.40;;
83554;SDS011;73511;50.996;7.030;2024-02-28T02:26:11;29.92;;;11.02;;
83554;SDS011;73511;50.996;7.030;2024-02-28T02:28:37;30.20;;;11.07;;
83554;SDS011;73511;50.996;7.030;2024-02-28T02:31:06;25.30;;;10.20;;
83554;SDS011;73511;50.996;7.030;2024-02-28T02:33:33;25.50;;;10.88;;
83554;SDS011;73511;50.996;7.030;2024-02-28T02:35:59;30.67;;;11.63;;
83554;SDS011;73511;50.996;7.030;2024-02-28T02:38:26;37.15;;;12.48;;
83554;SDS011;73511;50.996;7.030;2024-02-28T02:40:53;31.65;;;12.95;;
83554;SDS011;73511;50.996;7.030;2024-02-28T02:43:19;33.47;;;13.00;;
83554;SDS011;73511;50.996;7.030;2024-02-28T02:45:46;38.03;;;13.23;;
83554;SDS011;73511;50.996;7.030;2024-02-28T02:48:16;38.72;;;12.13;;
83554;SDS011;73511;50.996;7.030;2024-02-28T02:50:42;38.92;;;12.77;;
83554;SDS011;73511;50.996;7.030;2024-02-28T02:53:09;26.35;;;10.75;;
83554;SDS011;73511;50.996;7.030;2024-02-28T02:55:36;29.88;;;10.98;;
83554;SDS011;73511;50.996;7.030;2024-02-28T02:58:03;34.13;;;12.98;;
83554;SDS011;73511;50.996;7.030;2024-02-28T03:00:30;29.95;;;12.57;;
83554;SDS011;73511;50.996;7.030;2024-02-28T03:02:56;31.13;;;11.80;;
83554;SDS011;73511;50.996;7.030;2024-02-28T03:05:23;36.42;;;13.63;;
83554;SDS011;73511;50.996;7.030;2024-02-28T03:07:49;28.88;;;10.90;;
83554;SDS011;73511;50.996;7.030;2024-02-28T03:10:16;37.88;;;12.75;;
83554;SDS011;73511;50.996;7.030;2024-02-28T03:12:42;36.20;;;14.75;;
83554;SDS011;73511;50.996;7.030;2024-02-28T03:15:09;33.95;;;13.65;;
83554;SDS011;73511;50.996;7.030;2024-02-28T03:17:35;26.70;;;11.52;;
83554;SDS011;73511;50.996;7.030;2024-02-28T03:20:02;33.83;;;13.00;;
83554;SDS011;73511;50.996;7.030;2024-02-28T03:22:31;41.20;;;13.90;;
83554;SDS011;73511;50.996;7.030;2024-02-28T03:24:58;39.80;;;14.05;;
83554;SDS011;73511;50.996;7.030;2024-02-28T03:27:24;42.35;;;15.27;;
83554;SDS011;73511;50.996;7.030;2024-02-28T03:29:51;41.17;;;15.02;;
83554;SDS011;73511;50.996;7.030;2024-02-28T03:32:18;45.85;;;16.25;;
83554;SDS011;73511;50.996;7.030;2024-02-28T03:34:44;42.50;;;16.27;;
83554;SDS011;73511;50.996;7.030;2024-02-28T03:37:11;42.13;;;15.23;;
83554;SDS011;73511;50.996;7.030;2024-02-28T03:39:37;46.15;;;16.65;;
83554;SDS011;73511;50.996;7.030;2024-02-28T03:42:04;44.30;;;18.08;;
83554;SDS011;73511;50.996;7.030;2024-02-28T03:44:31;42.78;;;15.25;;
83554;SDS011;73511;50.996;7.030;2024-02-28T03:46:57;43.60;;;16.08;;
83554;SDS011;73511;50.996;7.030;2024-02-28T03:49:24;42.72;;;15.02;;
83554;SDS011;73511;50.996;7.030;2024-02-28T03:51:50;43.97;;;15.43;;
83554;SDS011;73511;50.996;7.030;2024-02-28T03:54:17;40.35;;;15.68;;
83554;SDS011;73511;50.996;7.030;2024-02-28T03:56:43;42.22;;;15.57;;
83554;SDS011;73511;50.996;7.030;2024-02-28T03:59:10;41.45;;;15.80;;
83554;SDS011;73511;50.996;7.030;2024-02-28T04:01:37;38.40;;;14.77;;
83554;SDS011;73511;50.996;7.030;2024-02-28T04:04:03;45.90;;;16.23;;
83554;SDS011;73511;50.996;7.030;2024-02-28T04:06:30;45.53;;;16.95;;
83554;SDS011;73511;50.996;7.030;2024-02-28T04:08:57;45.45;;;16.10;;
83554;SDS011;73511;50.996;7.030;2024-02-28T04:11:24;44.72;;;16.60;;
83554;SDS011;73511;50.996;7.030;2024-02-28T04:13:52;46.60;;;15.52;;
83554;SDS011;73511;50.996;7.030;2024-02-28T04:16:19;40.22;;;13.95;;
83554;SDS011;73511;50.996;7.030;2024-02-28T04:18:46;34.17;;;13.52;;
83554;SDS011;73511;50.996;7.030;2024-02-28T04:21:12;48.95;;;17.77;;
83554;SDS011;73511;50.996;7.030;2024-02-28T04:23:39;43.30;;;15.48;;
83554;SDS011;73511;50.996;7.030;2024-02-28T04:26:07;41.67;;;14.57;;
83554;SDS011;73511;50.996;7.030;2024-02-28T04:28:34;43.90;;;15.38;;
83554;SDS011;73511;50.996;7.030;2024-02-28T04:31:01;45.08;;;16.35;;
83554;SDS011;73511;50.996;7.030;2024-02-28T04:33:27;43.05;;;14.90;;
83554;SDS011;73511;50.996;7.030;2024-02-28T04:35:54;41.55;;;16.23;;
83554;SDS011;73511;50.996;7.030;2024-02-28T04:38:21;44.78;;;15.48;;
83554;SDS011;73511;50.996;7.030;2024-02-28T04:40:47;48.78;;;16.77;;
83554;SDS011;73511;50.996;7.030;2024-02-28T04:43:16;49.88;;;16.63;;
83554;SDS011;73511;50.996;7.030;2024-02-28T04:45:42;43.58;;;15.50;;
83554;SDS011;73511;50.996;7.030;2024-02-28T04:48:09;48.90;;;16.85;;
83554;SDS011;73511;50.996;7.030;2024-02-28T04:50:36;51.00;;;14.85;;
83554;SDS011;73511;50.996;7.030;2024-02-28T04:53:02;42.85;;;15.05;;
83554;SDS011;73511;50.996;7.030;2024-02-28T04:55:29;45.30;;;16.70;;
83554;SDS011;73511;50.996;7.030;2024-02-28T04:57:56;52.85;;;17.92;;
83554;SDS011;73511;50.996;7.030;2024-02-28T05:00:22;41.95;;;14.57;;
83554;SDS011;73511;50.996;7.030;2024-02-28T05:02:49;41.90;;;15.00;;
83554;SDS011;73511;50.996;7.030;2024-02-28T05:05:16;43.25;;;14.45;;
83554;SDS011;73511;50.996;7.030;2024-02-28T05:07:42;47.30;;;17.17;;
83554;SDS011;73511;50.996;7.030;2024-02-28T05:10:09;50.83;;;16.83;;
83554;SDS011;73511;50.996;7.030;2024-02-28T05:12:36;46.67;;;16.15;;
83554;SDS011;73511;50.996;7.030;2024-02-28T05:15:02;35.95;;;14.65;;
83554;SDS011;73511;50.996;7.030;2024-02-28T05:17:29;46.75;;;16.77;;
83554;SDS011;73511;50.996;7.030;2024-02-28T05:19:56;44.45;;;15.77;;
83554;SDS011;73511;50.996;7.030;2024-02-28T05:22:23;51.42;;;17.70;;
83554;SDS011;73511;50.996;7.030;2024-02-28T05:24:50;51.78;;;18.40;;
83554;SDS011;73511;50.996;7.030;2024-02-28T05:27:16;47.15;;;16.85;;
83554;SDS011;73511;50.996;7.030;2024-02-28T05:29:43;46.28;;;18.00;;
83554;SDS011;73511;50.996;7.030;2024-02-28T05:32:09;44.42;;;15.93;;
83554;SDS011;73511;50.996;7.030;2024-02-28T05:34:36;34.53;;;14.00;;
83554;SDS011;73511;50.996;7.030;2024-02-28T05:37:03;49.50;;;16.75;;
83554;SDS011;73511;50.996;7.030;2024-02-28T05:39:29;41.88;;;16.85;;
83554;SDS011;73511;50.996;7.030;2024-02-28T05:41:57;53.33;;;17.00;;
83554;SDS011;73511;50.996;7.030;2024-02-28T05:44:23;46.25;;;15.98;;
83554;SDS011;73511;50.996;7.030;2024-02-28T05:46:50;44.72;;;16.92;;
83554;SDS011;73511;50.996;7.030;2024-02-28T05:49:17;49.65;;;16.60;;
83554;SDS011;73511;50.996;7.030;2024-02-28T05:51:44;47.53;;;15.93;;
83554;SDS011;73511;50.996;7.030;2024-02-28T05:54:10;49.17;;;16.38;;
83554;SDS011;73511;50.996;7.030;2024-02-28T05:56:37;45.30;;;16.17;;
83554;SDS011;73511;50.996;7.030;2024-02-28T05:59:03;46.38;;;15.85;;
83554;SDS011;73511;50.996;7.030;2024-02-28T06:01:31;46.33;;;15.57;;
83554;SDS011;73511;50.996;7.030;2024-02-28T06:03:58;54.28;;;16.42;;
83554;SDS011;73511;50.996;7.030;2024-02-28T06:06:25;39.50;;;15.13;;
83554;SDS011;73511;50.996;7.030;2024-02-28T06:08:52;37.15;;;14.13;;
83554;SDS011;73511;50.996;7.030;2024-02-28T06:11:19;38.15;;;15.90;;
83554;SDS011;73511;50.996;7.030;2024-02-28T06:13:45;39.58;;;13.73;;
83554;SDS011;73511;50.996;7.030;2024-02-28T06:16:16;44.80;;;15.55;;
83554;SDS011;73511;50.996;7.030;2024-02-28T06:18:44;31.70;;;11.88;;
83554;SDS011;73511;50.996;7.030;2024-02-28T06:21:12;40.53;;;15.43;;
83554;SDS011;73511;50.996;7.030;2024-02-28T06:23:39;44.53;;;16.42;;
83554;SDS011;73511;50.996;7.030;2024-02-28T06:26:06;42.97;;;14.68;;
83554;SDS011;73511;50.996;7.030;2024-02-28T06:28:32;35.92;;;12.85;;
83554;SDS011;73511;50.996;7.030;2024-02-28T06:30:59;47.42;;;15.00;;
83554;SDS011;73511;50.996;7.030;2024-02-28T06:33:26;44.22;;;15.13;;
83554;SDS011;73511;50.996;7.030;2024-02-28T06:35:52;48.72;;;15.30;;
83554;SDS011;73511;50.996;7.030;2024-02-28T06:38:19;47.08;;;15.52;;
83554;SDS011;73511;50.996;7.030;2024-02-28T06:40:46;52.85;;;15.52;;
83554;SDS011;73511;50.996;7.030;2024-02-28T06:43:12;44.97;;;15.55;;
83554;SDS011;73511;50.996;7.030;2024-02-28T06:45:39;46.42;;;16.27;;
83554;SDS011;73511;50.996;7.030;2024-02-28T06:48:06;44.13;;;16.20;;
83554;SDS011;73511;50.996;7.030;2024-02-28T06:50:33;48.38;;;16.30;;
83554;SDS011;73511;50.996;7.030;2024-02-28T06:53:00;50.70;;;14.75;;
83554;SDS011;73511;50.996;7.030;2024-02-28T06:55:26;51.25;;;16.98;;
83554;SDS011;73511;50.996;7.030;2024-02-28T06:57:53;42.60;;;15.48;;
83554;SDS011;73511;50.996;7.030;2024-02-28T07:00:20;41.90;;;13.93;;
83554;SDS011;73511;50.996;7.030;2024-02-28T07:02:46;43.22;;;16.75;;
83554;SDS011;73511;50.996;7.030;2024-02-28T07:05:13;47.50;;;14.98;;
83554;SDS011;73511;50.996;7.030;2024-02-28T07:07:39;44.40;;;16.77;;
83554;SDS011;73511;50.996;7.030;2024-02-28T07:10:06;50.65;;;17.13;;
83554;SDS011;73511;50.996;7.030;2024-02-28T07:12:33;50.75;;;17.83;;
83554;SDS011;73511;50.996;7.030;2024-02-28T07:14:59;49.38;;;16.55;;
83554;SDS011;73511;50.996;7.030;2024-02-28T07:17:26;42.60;;;14.25;;
83554;SDS011;73511;50.996;7.030;2024-02-28T07:19:53;45.45;;;15.23;;
83554;SDS011;73511;50.996;7.030;2024-02-28T07:22:19;45.88;;;17.10;;
83554;SDS011;73511;50.996;7.030;2024-02-28T07:27:14;43.28;;;13.98;;
83554;SDS011;73511;50.996;7.030;2024-02-28T07:29:42;32.20;;;12.20;;
83554;SDS011;73511;50.996;7.030;2024-02-28T07:32:08;40.15;;;15.43;;
83554;SDS011;73511;50.996;7.030;2024-02-28T07:34:35;48.92;;;16.17;;
83554;SDS011;73511;50.996;7.030;2024-02-28T07:37:02;44.60;;;15.02;;
83554;SDS011;73511;50.996;7.030;2024-02-28T07:39:28;49.20;;;15.73;;
83554;SDS011;73511;50.996;7.030;2024-02-28T07:41:55;45.58;;;13.73;;
83554;SDS011;73511;50.996;7.030;2024-02-28T07:44:22;42.75;;;17.17;;
83554;SDS011;73511;50.996;7.030;2024-02-28T07:46:49;52.20;;;16.65;;
83554;SDS011;73511;50.996;7.030;2024-02-28T07:49:17;43.78;;;15.15;;
83554;SDS011;73511;50.996;7.030;2024-02-28T07:51:44;31.52;;;10.95;;
83554;SDS011;73511;50.996;7.030;2024-02-28T07:54:11;40.08;;;13.52;;
83554;SDS011;73511;50.996;7.030;2024-02-28T07:56:38;41.45;;;15.63;;
83554;SDS011;73511;50.996;7.030;2024-02-28T07:59:05;45.63;;;15.95;;
83554;SDS011;73511;50.996;7.030;2024-02-28T08:01:31;50.88;;;16.88;;
83554;SDS011;73511;50.996;7.030;2024-02-28T08:03:58;50.50;;;18.40;;
83554;SDS011;73511;50.996;7.030;2024-02-28T08:06:26;44.47;;;15.02;;
83554;SDS011;73511;50.996;7.030;2024-02-28T08:08:53;48.80;;;16.95;;
83554;SDS011;73511;50.996;7.030;2024-02-28T08:11:19;28.98;;;11.52;;
83554;SDS011;73511;50.996;7.030;2024-02-28T08:13:46;43.05;;;15.93;;
83554;SDS011;73511;50.996;7.030;2024-02-28T08:16:13;40.45;;;14.35;;
83554;SDS011;73511;50.996;7.030;2024-02-28T08:18:40;36.63;;;12.80;;
83554;SDS011;73511;50.996;7.030;2024-02-28T08:21:08;38.10;;;11.32;;
83554;SDS011;73511;50.996;7.030;2024-02-28T08:23:35;38.60;;;12.85;;
83554;SDS011;73511;50.996;7.030;2024-02-28T08:26:01;36.72;;;11.55;;
83554;SDS011;73511;50.996;7.030;2024-02-28T08:28:30;36.88;;;12.95;;
83554;SDS011;73511;50.996;7.030;2024-02-28T08:30:56;43.00;;;14.15;;
83554;SDS011;73511;50.996;7.030;2024-02-28T08:33:24;41.28;;;13.90;;
83554;SDS011;73511;50.996;7.030;2024-02-28T08:35:51;39.38;;;13.13;;
83554;SDS011;73511;50.996;7.030;2024-02-28T08:38:18;30.00;;;11.88;;
83554;SDS011;73511;50.996;7.030;2024-02-28T08:40:45;44.03;;;14.70;;
83554;SDS011;73511;50.996;7.030;2024-02-28T08:43:12;34.90;;;11.52;;
83554;SDS011;73511;50.996;7.030;2024-02-28T08:45:38;38.20;;;13.13;;
83554;SDS011;73511;50.996;7.030;2024-02-28T08:48:06;38.97;;;14.15;;
83554;SDS011;73511;50.996;7.030;2024-02-28T08:53:00;36.53;;;12.93;;
83554;SDS011;73511;50.996;7.030;2024-02-28T08:55:28;38.08;;;14.45;;
83554;SDS011;73511;50.996;7.030;2024-02-28T08:57:55;39.10;;;15.27;;
83554;SDS011;73511;50.996;7.030;2024-02-28T09:00:22;36.95;;;14.00;;
83554;SDS011;73511;50.996;7.030;2024-02-28T09:02:49;38.10;;;13.35;;
83554;SDS011;73511;50.996;7.030;2024-02-28T09:05:15;40.25;;;13.30;;
83554;SDS011;73511;50.996;7.030;2024-02-28T09:07:42;42.28;;;14.07;;
83554;SDS011;73511;50.996;7.030;2024-02-28T09:10:09;38.75;;;13.73;;
83554;SDS011;73511;50.996;7.030;2024-02-28T09:12:37;33.95;;;14.35;;
83554;SDS011;73511;50.996;7.030;2024-02-28T09:15:04;41.92;;;14.55;;
83554;SDS011;73511;50.996;7.030;2024-02-28T09:17:31;43.03;;;12.75;;
83554;SDS011;73511;50.996;7.030;2024-02-28T09:19:58;33.35;;;11.60;;
83554;SDS011;73511;50.996;7.030;2024-02-28T09:22:27;34.55;;;11.95;;
83554;SDS011;73511;50.996;7.030;2024-02-28T09:24:54;36.78;;;14.13;;
83554;SDS011;73511;50.996;7.030;2024-02-28T09:27:21;40.25;;;14.50;;
83554;SDS011;73511;50.996;7.030;2024-02-28T09:29:48;29.02;;;11.30;;
83554;SDS011;73511;50.996;7.030;2024-02-28T09:32:14;23.90;;;9.18;;
83554;SDS011;73511;50.996;7.030;2024-02-28T09:34:41;41.72;;;14.82;;
83554;SDS011;73511;50.996;7.030;2024-02-28T09:37:08;32.60;;;11.48;;
83554;SDS011;73511;50.996;7.030;2024-02-28T09:39:37;44.03;;;14.55;;
83554;SDS011;73511;50.996;7.030;2024-02-28T09:42:05;28.85;;;10.93;;
83554;SDS011;73511;50.996;7.030;2024-02-28T09:44:33;38.97;;;13.68;;
83554;SDS011;73511;50.996;7.030;2024-02-28T09:47:00;33.40;;;12.30;;
83554;SDS011;73511;50.996;7.030;2024-02-28T09:49:27;41.88;;;14.70;;
83554;SDS011;73511;50.996;7.030;2024-02-28T09:51:55;39.72;;;12.40;;
83554;SDS011;73511;50.996;7.030;2024-02-28T09:54:23;37.65;;;13.52;;
83554;SDS011;73511;50.996;7.030;2024-02-28T09:56:49;29.30;;;10.63;;
83554;SDS011;73511;50.996;7.030;2024-02-28T09:59:20;24.92;;;9.95;;
83554;SDS011;73511;50.996;7.030;2024-02-28T10:01:57;31.85;;;11.60;;
83554;SDS011;73511;50.996;7.030;2024-02-28T10:04:25;25.70;;;10.52;;
83554;SDS011;73511;50.996;7.030;2024-02-28T10:06:52;33.55;;;12.05;;
83554;SDS011;73511;50.996;7.030;2024-02-28T10:09:19;40.67;;;12.95;;
83554;SDS011;73511;50.996;7.030;2024-02-28T10:11:46;36.25;;;13.38;;
83554;SDS011;73511;50.996;7.030;2024-02-28T10:14:17;35.50;;;13.00;;
83554;SDS011;73511;50.996;7.030;2024-02-28T10:16:45;34.63;;;13.20;;
83554;SDS011;73511;50.996;7.030;2024-02-28T10:19:12;35.05;;;12.80;;
83554;SDS011;73511;50.996;7.030;2024-02-28T10:21:39;35.92;;;14.13;;
83554;SDS011;73511;50.996;7.030;2024-02-28T10:24:06;23.95;;;9.23;;
83554;SDS011;73511;50.996;7.030;2024-02-28T10:26:32;34.45;;;13.73;;
83554;SDS011;73511;50.996;7.030;2024-02-28T10:29:08;28.08;;;10.05;;
83554;SDS011;73511;50.996;7.030;2024-02-28T10:31:37;28.60;;;11.38;;
83554;SDS011;73511;50.996;7.030;2024-02-28T10:34:04;36.38;;;12.82;;
83554;SDS011;73511;50.996;7.030;2024-02-28T10:36:32;37.33;;;13.13;;
83554;SDS011;73511;50.996;7.030;2024-02-28T10:38:59;34.30;;;12.10;;
83554;SDS011;73511;50.996;7.030;2024-02-28T10:41:26;29.67;;;10.82;;
83554;SDS011;73511;50.996;7.030;2024-02-28T10:46:21;32.03;;;11.63;;
83554;SDS011;73511;50.996;7.030;2024-02-28T10:49:02;31.10;;;11.80;;
83554;SDS011;73511;50.996;7.030;2024-02-28T10:51:28;31.95;;;11.30;;
83554;SDS011;73511;50.996;7.030;2024-02-28T10:54:11;28.25;;;10.05;;
83554;SDS011;73511;50.996;7.030;2024-02-28T10:56:40;31.23;;;10.50;;
83554;SDS011;73511;50.996;7.030;2024-02-28T10:59:09;36.65;;;11.23;;
83554;SDS011;73511;50.996;7.030;2024-02-28T11:01:38;37.97;;;14.13;;
83554;SDS011;73511;50.996;7.030;2024-02-28T11:04:10;35.95;;;12.60;;
83554;SDS011;73511;50.996;7.030;2024-02-28T11:06:47;31.98;;;11.07;;
83554;SDS011;73511;50.996;7.030;2024-02-28T11:09:22;40.38;;;13.07;;
83554;SDS011;73511;50.996;7.030;2024-02-28T11:11:50;40.42;;;13.93;;
83554;SDS011;73511;50.996;7.030;2024-02-28T11:14:18;35.67;;;12.95;;
83554;SDS011;73511;50.996;7.030;2024-02-28T11:16:59;35.03;;;12.30;;
83554;SDS011;73511;50.996;7.030;2024-02-28T11:19:29;35.08;;;12.30;;
83554;SDS011;73511;50.996;7.030;2024-02-28T11:21:58;33.65;;;11.85;;
83554;SDS011;73511;50.996;7.030;2024-02-28T11:24:28;32.22;;;12.93;;
83554;SDS011;73511;50.996;7.030;2024-02-28T11:26:57;33.13;;;12.25;;
83554;SDS011;73511;50.996;7.030;2024-02-28T11:29:27;31.83;;;12.55;;
83554;SDS011;73511;50.996;7.030;2024-02-28T11:31:57;31.30;;;12.63;;
83554;SDS011;73511;50.996;7.030;2024-02-28T11:34:24;26.88;;;10.30;;
83554;SDS011;73511;50.996;7.030;2024-02-28T11:36:51;33.67;;;11.82;;
83554;SDS011;73511;50.996;7.030;2024-02-28T11:39:19;35.17;;;12.23;;
83554;SDS011;73511;50.996;7.030;2024-02-28T11:41:47;39.10;;;11.95;;
83554;SDS011;73511;50.996;7.030;2024-02-28T11:44:17;32.75;;;11.77;;
83554;SDS011;73511;50.996;7.030;2024-02-28T11:46:45;32.20;;;12.60;;
83554;SDS011;73511;50.996;7.030;2024-02-28T11:49:15;33.63;;;11.50;;
83554;SDS011;73511;50.996;7.030;2024-02-28T11:51:42;40.60;;;14.82;;
83554;SDS011;73511;50.996;7.030;2024-02-28T11:54:09;32.25;;;12.02;;
83554;SDS011;73511;50.996;7.030;2024-02-28T11:56:37;25.23;;;9.23;;
83554;SDS011;73511;50.996;7.030;2024-02-28T11:59:05;29.42;;;10.68;;
83554;SDS011;73511;50.996;7.030;2024-02-28T12:01:35;34.20;;;11.95;;
83554;SDS011;73511;50.996;7.030;2024-02-28T12:04:06;30.55;;;12.35;;
83554;SDS011;73511;50.996;7.030;2024-02-28T12:06:36;28.08;;;10.57;;
83554;SDS011;73511;50.996;7.030;2024-02-28T12:09:05;30.85;;;12.05;;
83554;SDS011;73511;50.996;7.030;2024-02-28T12:11:35;34.17;;;12.80;;
83554;SDS011;73511;50.996;7.030;2024-02-28T12:14:08;35.00;;;13.07;;
83554;SDS011;73511;50.996;7.030;2024-02-28T12:16:36;33.67;;;11.32;;
83554;SDS011;73511;50.996;7.030;2024-02-28T12:19:06;24.15;;;10.50;;
83554;SDS011;73511;50.996;7.030;2024-02-28T12:21:34;28.42;;;10.23;;
83554;SDS011;73511;50.996;7.030;2024-02-28T12:24:01;27.42;;;9.05;;
83554;SDS011;73511;50.996;7.030;2024-02-28T12:26:27;33.08;;;11.30;;
83554;SDS011;73511;50.996;7.030;2024-02-28T12:28:54;23.13;;;10.15;;
83554;SDS011;73511;50.996;7.030;2024-02-28T12:31:21;32.05;;;10.10;;
83554;SDS011;73511;50.996;7.030;2024-02-28T12:33:48;18.52;;;8.98;;
83554;SDS011;73511;50.996;7.030;2024-02-28T12:36:14;32.55;;;11.55;;
83554;SDS011;73511;50.996;7.030;2024-02-28T12:38:41;30.63;;;10.88;;
83554;SDS011;73511;50.996;7.030;2024-02-28T12:41:08;30.33;;;11.60;;
83554;SDS011;73511;50.996;7.030;2024-02-28T12:43:34;21.48;;;7.85;;
83554;SDS011;73511;50.996;7.030;2024-02-28T12:46:01;24.13;;;9.30;;
83554;SDS011;73511;50.996;7.030;2024-02-28T12:48:28;26.73;;;10.45;;
83554;SDS011;73511;50.996;7.030;2024-02-28T12:50:55;24.08;;;8.55;;
83554;SDS011;73511;50.996;7.030;2024-02-28T12:53:22;25.83;;;9.13;;
83554;SDS011;73511;50.996;7.030;2024-02-28T12:55:49;26.30;;;9.88;;
83554;SDS011;73511;50.996;7.030;2024-02-28T12:58:15;26.23;;;9.45;;
83554;SDS011;73511;50.996;7.030;2024-02-28T13:00:42;23.98;;;9.13;;
83554;SDS011;73511;50.996;7.030;2024-02-28T13:03:09;23.20;;;9.52;;
83554;SDS011;73511;50.996;7.030;2024-02-28T13:05:35;24.02;;;9.40;;
83554;SDS011;73511;50.996;7.030;2024-02-28T13:08:02;24.40;;;9.57;;
83554;SDS011;73511;50.996;7.030;2024-02-28T13:10:29;24.13;;;9.23;;
83554;SDS011;73511;50.996;7.030;2024-02-28T13:12:56;25.88;;;9.27;;
83554;SDS011;73511;50.996;7.030;2024-02-28T13:15:23;28.33;;;10.25;;
83554;SDS011;73511;50.996;7.030;2024-02-28T13:17:50;22.98;;;9.05;;
83554;SDS011;73511;50.996;7.030;2024-02-28T13:20:18;16.00;;;6.53;;
83554;SDS011;73511;50.996;7.030;2024-02-28T13:22:45;24.50;;;8.90;;
83554;SDS011;73511;50.996;7.030;2024-02-28T13:25:12;29.98;;;9.98;;
83554;SDS011;73511;50.996;7.030;2024-02-28T13:27:40;25.45;;;9.15;;
83554;SDS011;73511;50.996;7.030;2024-02-28T13:30:07;18.77;;;7.38;;
83554;SDS011;73511;50.996;7.030;2024-02-28T13:32:34;19.45;;;7.78;;
83554;SDS011;73511;50.996;7.030;2024-02-28T13:35:01;22.15;;;8.77;;
83554;SDS011;73511;50.996;7.030;2024-02-28T13:37:28;25.77;;;8.00;;
83554;SDS011;73511;50.996;7.030;2024-02-28T13:39:54;22.65;;;9.40;;
83554;SDS011;73511;50.996;7.030;2024-02-28T13:42:22;22.25;;;8.40;;
83554;SDS011;73511;50.996;7.030;2024-02-28T13:44:51;20.67;;;8.00;;
83554;SDS011;73511;50.996;7.030;2024-02-28T13:47:18;23.83;;;8.77;;
83554;SDS011;73511;50.996;7.030;2024-02-28T13:49:44;15.40;;;6.75;;
83554;SDS011;73511;50.996;7.030;2024-02-28T13:52:11;19.83;;;7.40;;
83554;SDS011;73511;50.996;7.030;2024-02-28T13:54:37;21.27;;;7.72;;
83554;SDS011;73511;50.996;7.030;2024-02-28T13:57:04;17.40;;;6.88;;
83554;SDS011;73511;50.996;7.030;2024-02-28T13:59:34;23.08;;;8.40;;
83554;SDS011;73511;50.996;7.030;2024-02-28T14:02:00;20.83;;;7.25;;
83554;SDS011;73511;50.996;7.030;2024-02-28T14:04:27;18.88;;;7.10;;
83554;SDS011;73511;50.996;7.030;2024-02-28T14:06:54;21.05;;;7.78;;
83554;SDS011;73511;50.996;7.030;2024-02-28T14:09:21;24.90;;;9.00;;
83554;SDS011;73511;50.996;7.030;2024-02-28T14:11:48;24.35;;;9.00;;
83554;SDS011;73511;50.996;7.030;2024-02-28T14:14:14;16.80;;;7.03;;
83554;SDS011;73511;50.996;7.030;2024-02-28T14:16:42;21.10;;;7.45;;
83554;SDS011;73511;50.996;7.030;2024-02-28T14:19:09;22.25;;;7.47;;
83554;SDS011;73511;50.996;7.030;2024-02-28T14:21:36;15.88;;;7.10;;
83554;SDS011;73511;50.996;7.030;2024-02-28T14:24:03;17.73;;;7.15;;
83554;SDS011;73511;50.996;7.030;2024-02-28T14:26:30;17.27;;;6.55;;
83554;SDS011;73511;50.996;7.030;2024-02-28T14:28:56;13.27;;;5.85;;
83554;SDS011;73511;50.996;7.030;2024-02-28T14:31:23;19.67;;;7.25;;